sensor_id;sensor_type;location;lat;lon;timestamp;P1;durP1;ratioP1;P2;durP2;ratioP2
12631;SDS011;6381;45.748;12.106;2023-04-27T00:00:19;4.03;;;3.60;;
12631;SDS011;6381;45.748;12.106;2023-04-27T00:02:51;4.10;;;3.70;;
12631;SDS011;6381;45.748;12.106;2023-04-27T00:05:22;6.13;;;3.97;;
12631;SDS011;6381;45.748;12.106;2023-04-27T00:07:52;4.33;;;3.93;;
12631;SDS011;6381;45.748;12.106;2023-04-27T00:10:21;3.87;;;3.57;;
12631;SDS011;6381;45.748;12.106;2023-04-27T00:12:51;4.13;;;3.60;;
12631;SDS011;6381;45.748;12.106;2023-04-27T00:15:20;4.10;;;3.80;;
12631;SDS011;6381;45.748;12.106;2023-04-27T00:17:49;4.77;;;3.70;;
12631;SDS011;6381;45.748;12.106;2023-04-27T00:20:19;4.57;;;4.07;;
12631;SDS011;6381;45.748;12.106;2023-04-27T00:22:50;4.60;;;4.10;;
12631;SDS011;6381;45.748;12.106;2023-04-27T00:25:19;5.70;;;4.57;;
12631;SDS011;6381;45.748;12.106;2023-04-27T00:27:48;5.30;;;3.60;;
12631;SDS011;6381;45.748;12.106;2023-04-27T00:30:18;4.43;;;4.03;;
12631;SDS011;6381;45.748;12.106;2023-04-27T00:32:47;4.37;;;3.80;;
12631;SDS011;6381;45.748;12.106;2023-04-27T00:35:16;4.40;;;4.00;;
12631;SDS011;6381;45.748;12.106;2023-04-27T00:37:46;4.67;;;4.23;;
12631;SDS011;6381;45.748;12.106;2023-04-27T00:40:18;4.97;;;4.47;;
12631;SDS011;6381;45.748;12.106;2023-04-27T00:42:48;4.73;;;4.33;;
12631;SDS011;6381;45.748;12.106;2023-04-27T00:45:17;5.87;;;5.40;;
12631;SDS011;6381;45.748;12.106;2023-04-27T00:47:47;5.13;;;4.60;;
12631;SDS011;6381;45.748;12.106;2023-04-27T00:50:17;4.90;;;4.50;;
12631;SDS011;6381;45.748;12.106;2023-04-27T00:52:51;4.97;;;4.57;;
12631;SDS011;6381;45.748;12.106;2023-04-27T00:55:22;4.93;;;4.43;;
12631;SDS011;6381;45.748;12.106;2023-04-27T00:57:51;5.00;;;4.10;;
12631;SDS011;6381;45.748;12.106;2023-04-27T01:00:21;4.83;;;4.33;;
12631;SDS011;6381;45.748;12.106;2023-04-27T01:02:51;4.50;;;4.10;;
12631;SDS011;6381;45.748;12.106;2023-04-27T01:05:21;4.37;;;3.97;;
12631;SDS011;6381;45.748;12.106;2023-04-27T01:07:52;5.00;;;4.50;;
12631;SDS011;6381;45.748;12.106;2023-04-27T01:10:23;5.47;;;4.63;;
12631;SDS011;6381;45.748;12.106;2023-04-27T01:12:53;4.87;;;4.47;;
12631;SDS011;6381;45.748;12.106;2023-04-27T01:15:23;4.73;;;4.10;;
12631;SDS011;6381;45.748;12.106;2023-04-27T01:17:56;4.50;;;4.10;;
12631;SDS011;6381;45.748;12.106;2023-04-27T01:20:26;4.60;;;4.20;;
12631;SDS011;6381;45.748;12.106;2023-04-27T01:22:56;4.00;;;3.70;;
12631;SDS011;6381;45.748;12.106;2023-04-27T01:25:28;5.10;;;4.70;;
12631;SDS011;6381;45.748;12.106;2023-04-27T01:28:01;4.30;;;3.80;;
12631;SDS011;6381;45.748;12.106;2023-04-27T01:30:30;5.03;;;4.20;;
12631;SDS011;6381;45.748;12.106;2023-04-27T01:32:59;4.53;;;4.13;;
12631;SDS011;6381;45.748;12.106;2023-04-27T01:35:28;6.23;;;4.30;;
12631;SDS011;6381;45.748;12.106;2023-04-27T01:37:59;4.90;;;4.50;;
12631;SDS011;6381;45.748;12.106;2023-04-27T01:40:30;4.37;;;4.07;;
12631;SDS011;6381;45.748;12.106;2023-04-27T01:42:59;4.67;;;4.27;;
12631;SDS011;6381;45.748;12.106;2023-04-27T01:45:30;4.50;;;4.10;;
12631;SDS011;6381;45.748;12.106;2023-04-27T01:47:59;4.57;;;4.17;;
12631;SDS011;6381;45.748;12.106;2023-04-27T01:50:29;4.60;;;4.20;;
12631;SDS011;6381;45.748;12.106;2023-04-27T01:52:58;4.80;;;4.20;;
12631;SDS011;6381;45.748;12.106;2023-04-27T01:55:27;4.73;;;4.27;;
12631;SDS011;6381;45.748;12.106;2023-04-27T01:57:58;4.57;;;4.17;;
12631;SDS011;6381;45.748;12.106;2023-04-27T02:00:28;5.47;;;4.50;;
12631;SDS011;6381;45.748;12.106;2023-04-27T02:02:58;4.73;;;4.33;;
12631;SDS011;6381;45.748;12.106;2023-04-27T02:05:27;4.73;;;4.33;;
12631;SDS011;6381;45.748;12.106;2023-04-27T02:07:57;5.13;;;4.63;;
12631;SDS011;6381;45.748;12.106;2023-04-27T02:10:26;4.87;;;4.37;;
12631;SDS011;6381;45.748;12.106;2023-04-27T02:12:57;4.93;;;4.43;;
12631;SDS011;6381;45.748;12.106;2023-04-27T02:15:26;4.70;;;4.17;;
12631;SDS011;6381;45.748;12.106;2023-04-27T02:17:56;4.90;;;4.50;;
12631;SDS011;6381;45.748;12.106;2023-04-27T02:20:25;5.77;;;5.20;;
12631;SDS011;6381;45.748;12.106;2023-04-27T02:22:59;5.07;;;4.57;;
12631;SDS011;6381;45.748;12.106;2023-04-27T02:25:29;5.00;;;4.50;;
12631;SDS011;6381;45.748;12.106;2023-04-27T02:27:59;5.40;;;4.90;;
12631;SDS011;6381;45.748;12.106;2023-04-27T02:30:29;5.10;;;4.70;;
12631;SDS011;6381;45.748;12.106;2023-04-27T02:32:59;5.73;;;5.10;;
12631;SDS011;6381;45.748;12.106;2023-04-27T02:35:30;5.17;;;4.67;;
12631;SDS011;6381;45.748;12.106;2023-04-27T02:37:59;5.17;;;4.67;;
12631;SDS011;6381;45.748;12.106;2023-04-27T02:40:29;5.27;;;4.87;;
12631;SDS011;6381;45.748;12.106;2023-04-27T02:42:59;5.47;;;4.97;;
12631;SDS011;6381;45.748;12.106;2023-04-27T02:45:30;5.23;;;4.73;;
12631;SDS011;6381;45.748;12.106;2023-04-27T02:47:59;5.30;;;4.77;;
12631;SDS011;6381;45.748;12.106;2023-04-27T02:50:29;6.20;;;4.30;;
12631;SDS011;6381;45.748;12.106;2023-04-27T02:52:58;6.73;;;4.50;;
12631;SDS011;6381;45.748;12.106;2023-04-27T02:55:27;5.40;;;4.70;;
12631;SDS011;6381;45.748;12.106;2023-04-27T02:57:57;5.77;;;4.47;;
12631;SDS011;6381;45.748;12.106;2023-04-27T03:00:27;8.73;;;4.53;;
12631;SDS011;6381;45.748;12.106;2023-04-27T03:02:57;7.23;;;4.80;;
12631;SDS011;6381;45.748;12.106;2023-04-27T03:05:26;8.90;;;4.80;;
12631;SDS011;6381;45.748;12.106;2023-04-27T03:07:57;5.03;;;4.50;;
12631;SDS011;6381;45.748;12.106;2023-04-27T03:10:27;5.00;;;4.50;;
12631;SDS011;6381;45.748;12.106;2023-04-27T03:12:56;4.50;;;4.10;;
12631;SDS011;6381;45.748;12.106;2023-04-27T03:15:28;5.93;;;4.70;;
12631;SDS011;6381;45.748;12.106;2023-04-27T03:17:58;9.37;;;4.90;;
12631;SDS011;6381;45.748;12.106;2023-04-27T03:20:27;6.80;;;4.50;;
12631;SDS011;6381;45.748;12.106;2023-04-27T03:22:56;11.33;;;4.30;;
12631;SDS011;6381;45.748;12.106;2023-04-27T03:25:26;8.80;;;4.90;;
12631;SDS011;6381;45.748;12.106;2023-04-27T03:27:55;10.47;;;5.67;;
12631;SDS011;6381;45.748;12.106;2023-04-27T03:30:24;7.63;;;5.20;;
12631;SDS011;6381;45.748;12.106;2023-04-27T03:32:55;6.03;;;4.87;;
12631;SDS011;6381;45.748;12.106;2023-04-27T03:35:25;9.73;;;5.30;;
12631;SDS011;6381;45.748;12.106;2023-04-27T03:37:54;13.37;;;4.97;;
12631;SDS011;6381;45.748;12.106;2023-04-27T03:40:23;5.33;;;4.83;;
12631;SDS011;6381;45.748;12.106;2023-04-27T03:42:53;5.10;;;4.67;;
12631;SDS011;6381;45.748;12.106;2023-04-27T03:45:25;6.07;;;4.57;;
12631;SDS011;6381;45.748;12.106;2023-04-27T03:47:55;5.20;;;4.70;;
12631;SDS011;6381;45.748;12.106;2023-04-27T03:50:25;5.07;;;4.60;;
12631;SDS011;6381;45.748;12.106;2023-04-27T03:52:56;6.63;;;5.00;;
12631;SDS011;6381;45.748;12.106;2023-04-27T03:55:25;6.20;;;4.87;;
12631;SDS011;6381;45.748;12.106;2023-04-27T03:57:54;5.50;;;4.60;;
12631;SDS011;6381;45.748;12.106;2023-04-27T04:00:24;5.63;;;4.70;;
12631;SDS011;6381;45.748;12.106;2023-04-27T04:02:53;5.23;;;4.73;;
12631;SDS011;6381;45.748;12.106;2023-04-27T04:05:24;9.07;;;5.10;;
12631;SDS011;6381;45.748;12.106;2023-04-27T04:07:54;5.40;;;4.90;;
12631;SDS011;6381;45.748;12.106;2023-04-27T04:10:24;5.80;;;4.80;;
12631;SDS011;6381;45.748;12.106;2023-04-27T04:12:53;7.37;;;5.03;;
12631;SDS011;6381;45.748;12.106;2023-04-27T04:15:23;5.20;;;4.70;;
12631;SDS011;6381;45.748;12.106;2023-04-27T04:17:52;5.50;;;5.00;;
12631;SDS011;6381;45.748;12.106;2023-04-27T04:20:23;5.40;;;4.90;;
12631;SDS011;6381;45.748;12.106;2023-04-27T04:22:53;5.57;;;5.07;;
12631;SDS011;6381;45.748;12.106;2023-04-27T04:25:22;5.83;;;5.27;;
12631;SDS011;6381;45.748;12.106;2023-04-27T04:27:52;5.70;;;5.10;;
12631;SDS011;6381;45.748;12.106;2023-04-27T04:30:21;7.83;;;6.10;;
12631;SDS011;6381;45.748;12.106;2023-04-27T04:32:51;6.43;;;5.57;;
12631;SDS011;6381;45.748;12.106;2023-04-27T04:35:21;6.10;;;5.40;;
12631;SDS011;6381;45.748;12.106;2023-04-27T04:37:52;9.50;;;6.57;;
12631;SDS011;6381;45.748;12.106;2023-04-27T04:40:21;7.53;;;5.90;;
12631;SDS011;6381;45.748;12.106;2023-04-27T04:42:50;7.43;;;6.30;;
12631;SDS011;6381;45.748;12.106;2023-04-27T04:45:20;6.97;;;6.27;;
12631;SDS011;6381;45.748;12.106;2023-04-27T04:47:49;6.50;;;5.80;;
12631;SDS011;6381;45.748;12.106;2023-04-27T04:50:20;10.77;;;6.40;;
12631;SDS011;6381;45.748;12.106;2023-04-27T04:52:50;9.13;;;6.73;;
12631;SDS011;6381;45.748;12.106;2023-04-27T04:55:20;6.23;;;5.63;;
12631;SDS011;6381;45.748;12.106;2023-04-27T04:57:50;7.47;;;6.33;;
12631;SDS011;6381;45.748;12.106;2023-04-27T05:00:19;11.03;;;6.90;;
12631;SDS011;6381;45.748;12.106;2023-04-27T05:02:49;7.33;;;6.23;;
12631;SDS011;6381;45.748;12.106;2023-04-27T05:05:19;6.63;;;6.03;;
12631;SDS011;6381;45.748;12.106;2023-04-27T05:07:48;6.33;;;5.73;;
12631;SDS011;6381;45.748;12.106;2023-04-27T05:10:19;7.27;;;6.53;;
12631;SDS011;6381;45.748;12.106;2023-04-27T05:12:48;6.90;;;6.23;;
12631;SDS011;6381;45.748;12.106;2023-04-27T05:15:17;6.33;;;5.73;;
12631;SDS011;6381;45.748;12.106;2023-04-27T05:17:46;7.53;;;6.17;;
12631;SDS011;6381;45.748;12.106;2023-04-27T05:20:16;7.20;;;6.50;;
12631;SDS011;6381;45.748;12.106;2023-04-27T05:22:46;6.57;;;5.97;;
12631;SDS011;6381;45.748;12.106;2023-04-27T05:25:15;7.30;;;6.50;;
12631;SDS011;6381;45.748;12.106;2023-04-27T05:27:46;7.93;;;6.07;;
12631;SDS011;6381;45.748;12.106;2023-04-27T05:30:15;6.87;;;6.17;;
12631;SDS011;6381;45.748;12.106;2023-04-27T05:32:45;7.07;;;6.37;;
12631;SDS011;6381;45.748;12.106;2023-04-27T05:35:14;7.10;;;6.40;;
12631;SDS011;6381;45.748;12.106;2023-04-27T05:37:43;7.13;;;6.47;;
12631;SDS011;6381;45.748;12.106;2023-04-27T05:40:13;7.00;;;6.30;;
12631;SDS011;6381;45.748;12.106;2023-04-27T05:42:44;7.10;;;6.40;;
12631;SDS011;6381;45.748;12.106;2023-04-27T05:45:15;7.20;;;6.50;;
12631;SDS011;6381;45.748;12.106;2023-04-27T05:47:44;7.43;;;6.43;;
12631;SDS011;6381;45.748;12.106;2023-04-27T05:50:14;7.57;;;6.40;;
12631;SDS011;6381;45.748;12.106;2023-04-27T05:52:43;7.17;;;5.93;;
12631;SDS011;6381;45.748;12.106;2023-04-27T05:55:14;6.73;;;6.13;;
12631;SDS011;6381;45.748;12.106;2023-04-27T05:57:43;7.10;;;6.27;;
12631;SDS011;6381;45.748;12.106;2023-04-27T06:00:24;7.70;;;7.00;;
12631;SDS011;6381;45.748;12.106;2023-04-27T06:02:54;8.17;;;7.17;;
12631;SDS011;6381;45.748;12.106;2023-04-27T06:05:23;9.03;;;6.47;;
12631;SDS011;6381;45.748;12.106;2023-04-27T06:07:52;8.00;;;6.70;;
12631;SDS011;6381;45.748;12.106;2023-04-27T06:10:22;8.83;;;6.97;;
12631;SDS011;6381;45.748;12.106;2023-04-27T06:12:53;7.23;;;6.53;;
12631;SDS011;6381;45.748;12.106;2023-04-27T06:15:24;6.73;;;6.10;;
12631;SDS011;6381;45.748;12.106;2023-04-27T06:17:53;7.70;;;6.70;;
12631;SDS011;6381;45.748;12.106;2023-04-27T06:20:22;8.60;;;6.10;;
12631;SDS011;6381;45.748;12.106;2023-04-27T06:22:52;7.17;;;6.40;;
12631;SDS011;6381;45.748;12.106;2023-04-27T06:25:23;7.80;;;7.00;;
12631;SDS011;6381;45.748;12.106;2023-04-27T06:27:53;7.03;;;6.43;;
12631;SDS011;6381;45.748;12.106;2023-04-27T06:30:24;6.63;;;6.03;;
12631;SDS011;6381;45.748;12.106;2023-04-27T06:32:53;8.37;;;5.43;;
12631;SDS011;6381;45.748;12.106;2023-04-27T06:35:22;5.37;;;4.87;;
12631;SDS011;6381;45.748;12.106;2023-04-27T06:37:52;7.03;;;5.33;;
12631;SDS011;6381;45.748;12.106;2023-04-27T06:40:24;5.67;;;5.07;;
12631;SDS011;6381;45.748;12.106;2023-04-27T06:42:54;7.17;;;4.90;;
12631;SDS011;6381;45.748;12.106;2023-04-27T06:45:25;5.87;;;4.80;;
12631;SDS011;6381;45.748;12.106;2023-04-27T06:47:55;5.07;;;4.57;;
12631;SDS011;6381;45.748;12.106;2023-04-27T06:50:25;5.53;;;4.13;;
12631;SDS011;6381;45.748;12.106;2023-04-27T06:52:54;6.33;;;4.50;;
12631;SDS011;6381;45.748;12.106;2023-04-27T06:55:23;9.13;;;4.60;;
12631;SDS011;6381;45.748;12.106;2023-04-27T06:57:53;7.17;;;4.77;;
12631;SDS011;6381;45.748;12.106;2023-04-27T07:00:22;6.53;;;5.40;;
12631;SDS011;6381;45.748;12.106;2023-04-27T07:02:53;8.90;;;5.20;;
12631;SDS011;6381;45.748;12.106;2023-04-27T07:05:23;5.60;;;5.10;;
12631;SDS011;6381;45.748;12.106;2023-04-27T07:07:52;6.90;;;5.37;;
12631;SDS011;6381;45.748;12.106;2023-04-27T07:10:22;8.27;;;5.43;;
12631;SDS011;6381;45.748;12.106;2023-04-27T07:12:51;9.00;;;5.73;;
12631;SDS011;6381;45.748;12.106;2023-04-27T07:15:20;15.13;;;5.70;;
12631;SDS011;6381;45.748;12.106;2023-04-27T07:17:51;9.40;;;5.07;;
12631;SDS011;6381;45.748;12.106;2023-04-27T07:20:21;8.40;;;5.60;;
12631;SDS011;6381;45.748;12.106;2023-04-27T07:22:51;8.33;;;4.97;;
12631;SDS011;6381;45.748;12.106;2023-04-27T07:25:20;6.30;;;4.90;;
12631;SDS011;6381;45.748;12.106;2023-04-27T07:27:49;6.10;;;4.73;;
12631;SDS011;6381;45.748;12.106;2023-04-27T07:30:19;6.50;;;4.40;;
12631;SDS011;6381;45.748;12.106;2023-04-27T07:32:49;6.20;;;5.17;;
12631;SDS011;6381;45.748;12.106;2023-04-27T07:35:22;5.70;;;5.10;;
12631;SDS011;6381;45.748;12.106;2023-04-27T07:37:51;6.40;;;5.03;;
12631;SDS011;6381;45.748;12.106;2023-04-27T07:40:22;7.43;;;5.03;;
12631;SDS011;6381;45.748;12.106;2023-04-27T07:42:54;6.20;;;4.40;;
12631;SDS011;6381;45.748;12.106;2023-04-27T07:45:24;6.43;;;4.80;;
12631;SDS011;6381;45.748;12.106;2023-04-27T07:47:58;5.30;;;4.30;;
12631;SDS011;6381;45.748;12.106;2023-04-27T07:50:29;5.13;;;4.50;;
12631;SDS011;6381;45.748;12.106;2023-04-27T07:52:59;6.60;;;4.43;;
12631;SDS011;6381;45.748;12.106;2023-04-27T07:55:29;7.23;;;4.33;;
12631;SDS011;6381;45.748;12.106;2023-04-27T07:57:58;5.77;;;4.20;;
12631;SDS011;6381;45.748;12.106;2023-04-27T08:00:27;7.75;;;4.32;;
12631;SDS011;6381;45.748;12.106;2023-04-27T08:02:57;3.60;;;3.30;;
12631;SDS011;6381;45.748;12.106;2023-04-27T08:05:27;6.35;;;4.00;;
12631;SDS011;6381;45.748;12.106;2023-04-27T08:07:59;6.40;;;4.40;;
12631;SDS011;6381;45.748;12.106;2023-04-27T08:10:28;5.90;;;4.10;;
12631;SDS011;6381;45.748;12.106;2023-04-27T08:12:57;4.10;;;3.72;;
12631;SDS011;6381;45.748;12.106;2023-04-27T08:15:27;6.30;;;3.40;;
12631;SDS011;6381;45.748;12.106;2023-04-27T08:17:56;3.67;;;3.28;;
12631;SDS011;6381;45.748;12.106;2023-04-27T08:20:25;2.75;;;2.50;;
12631;SDS011;6381;45.748;12.106;2023-04-27T08:22:55;2.80;;;2.60;;
12631;SDS011;6381;45.748;12.106;2023-04-27T08:25:26;4.45;;;2.70;;
12631;SDS011;6381;45.748;12.106;2023-04-27T08:27:55;5.90;;;3.42;;
12631;SDS011;6381;45.748;12.106;2023-04-27T08:30:24;6.85;;;4.22;;
12631;SDS011;6381;45.748;12.106;2023-04-27T08:32:53;6.15;;;3.30;;
12631;SDS011;6381;45.748;12.106;2023-04-27T08:35:23;6.32;;;3.25;;
12631;SDS011;6381;45.748;12.106;2023-04-27T08:37:52;4.22;;;2.90;;
12631;SDS011;6381;45.748;12.106;2023-04-27T08:40:22;5.18;;;2.78;;
12631;SDS011;6381;45.748;12.106;2023-04-27T08:42:54;5.40;;;2.75;;
12631;SDS011;6381;45.748;12.106;2023-04-27T08:45:24;4.38;;;3.38;;
12631;SDS011;6381;45.748;12.106;2023-04-27T08:47:54;4.97;;;3.17;;
12631;SDS011;6381;45.748;12.106;2023-04-27T08:50:24;3.05;;;2.60;;
12631;SDS011;6381;45.748;12.106;2023-04-27T08:52:53;4.15;;;2.92;;
12631;SDS011;6381;45.748;12.106;2023-04-27T08:55:22;3.13;;;2.50;;
12631;SDS011;6381;45.748;12.106;2023-04-27T08:57:54;2.85;;;2.40;;
12631;SDS011;6381;45.748;12.106;2023-04-27T09:00:24;3.00;;;2.35;;
12631;SDS011;6381;45.748;12.106;2023-04-27T09:02:54;4.47;;;2.20;;
12631;SDS011;6381;45.748;12.106;2023-04-27T09:05:23;3.08;;;2.10;;
12631;SDS011;6381;45.748;12.106;2023-04-27T09:07:59;1.98;;;1.77;;
12631;SDS011;6381;45.748;12.106;2023-04-27T09:10:42;3.40;;;2.33;;
12631;SDS011;6381;45.748;12.106;2023-04-27T09:13:13;2.53;;;2.33;;
12631;SDS011;6381;45.748;12.106;2023-04-27T09:15:43;2.83;;;2.47;;
12631;SDS011;6381;45.748;12.106;2023-04-27T09:18:14;3.65;;;2.58;;
12631;SDS011;6381;45.748;12.106;2023-04-27T09:20:45;4.20;;;2.35;;
12631;SDS011;6381;45.748;12.106;2023-04-27T09:23:26;2.35;;;2.15;;
12631;SDS011;6381;45.748;12.106;2023-04-27T09:25:59;2.22;;;2.03;;
12631;SDS011;6381;45.748;12.106;2023-04-27T09:28:31;2.35;;;2.15;;
12631;SDS011;6381;45.748;12.106;2023-04-27T09:31:01;2.72;;;2.28;;
12631;SDS011;6381;45.748;12.106;2023-04-27T09:33:31;2.70;;;2.50;;
12631;SDS011;6381;45.748;12.106;2023-04-27T09:36:02;3.15;;;2.10;;
12631;SDS011;6381;45.748;12.106;2023-04-27T09:38:33;2.80;;;2.40;;
12631;SDS011;6381;45.748;12.106;2023-04-27T09:41:02;3.45;;;2.28;;
12631;SDS011;6381;45.748;12.106;2023-04-27T09:43:34;2.75;;;2.20;;
12631;SDS011;6381;45.748;12.106;2023-04-27T09:46:04;2.35;;;2.08;;
12631;SDS011;6381;45.748;12.106;2023-04-27T09:48:34;2.10;;;1.90;;
12631;SDS011;6381;45.748;12.106;2023-04-27T09:51:06;2.08;;;1.88;;
12631;SDS011;6381;45.748;12.106;2023-04-27T09:53:36;2.25;;;2.05;;
12631;SDS011;6381;45.748;12.106;2023-04-27T09:56:12;1.90;;;1.70;;
12631;SDS011;6381;45.748;12.106;2023-04-27T09:59:01;2.00;;;1.70;;
12631;SDS011;6381;45.748;12.106;2023-04-27T10:01:43;2.55;;;2.35;;
12631;SDS011;6381;45.748;12.106;2023-04-27T10:04:19;2.20;;;2.00;;
12631;SDS011;6381;45.748;12.106;2023-04-27T10:07:01;5.85;;;2.00;;
12631;SDS011;6381;45.748;12.106;2023-04-27T10:09:36;1.98;;;1.80;;
12631;SDS011;6381;45.748;12.106;2023-04-27T10:12:16;6.97;;;1.90;;
12631;SDS011;6381;45.748;12.106;2023-04-27T10:14:51;2.60;;;1.80;;
12631;SDS011;6381;45.748;12.106;2023-04-27T10:17:24;2.08;;;1.77;;
12631;SDS011;6381;45.748;12.106;2023-04-27T10:19:58;1.60;;;1.50;;
12631;SDS011;6381;45.748;12.106;2023-04-27T10:22:38;2.30;;;1.73;;
12631;SDS011;6381;45.748;12.106;2023-04-27T10:25:12;1.60;;;1.50;;
12631;SDS011;6381;45.748;12.106;2023-04-27T10:27:47;2.28;;;2.00;;
12631;SDS011;6381;45.748;12.106;2023-04-27T10:30:21;2.88;;;1.90;;
12631;SDS011;6381;45.748;12.106;2023-04-27T10:32:52;1.98;;;1.77;;
12631;SDS011;6381;45.748;12.106;2023-04-27T10:35:31;2.30;;;1.98;;
12631;SDS011;6381;45.748;12.106;2023-04-27T10:38:04;2.50;;;2.13;;
12631;SDS011;6381;45.748;12.106;2023-04-27T10:40:35;4.28;;;1.88;;
12631;SDS011;6381;45.748;12.106;2023-04-27T10:43:08;2.50;;;2.22;;
12631;SDS011;6381;45.748;12.106;2023-04-27T10:45:40;2.72;;;2.10;;
12631;SDS011;6381;45.748;12.106;2023-04-27T10:48:11;2.13;;;1.73;;
12631;SDS011;6381;45.748;12.106;2023-04-27T10:50:41;2.60;;;1.90;;
12631;SDS011;6381;45.748;12.106;2023-04-27T10:53:12;3.03;;;1.38;;
12631;SDS011;6381;45.748;12.106;2023-04-27T10:55:42;1.40;;;1.30;;
12631;SDS011;6381;45.748;12.106;2023-04-27T10:58:12;1.83;;;1.50;;
12631;SDS011;6381;45.748;12.106;2023-04-27T11:00:43;1.90;;;1.42;;
12631;SDS011;6381;45.748;12.106;2023-04-27T11:03:15;3.58;;;1.38;;
12631;SDS011;6381;45.748;12.106;2023-04-27T11:05:46;1.52;;;1.27;;
12631;SDS011;6381;45.748;12.106;2023-04-27T11:08:17;1.80;;;1.25;;
12631;SDS011;6381;45.748;12.106;2023-04-27T11:10:47;1.50;;;1.35;;
12631;SDS011;6381;45.748;12.106;2023-04-27T11:13:17;1.80;;;1.50;;
12631;SDS011;6381;45.748;12.106;2023-04-27T11:15:50;1.70;;;1.40;;
12631;SDS011;6381;45.748;12.106;2023-04-27T11:18:22;1.40;;;1.30;;
12631;SDS011;6381;45.748;12.106;2023-04-27T11:20:52;1.55;;;1.40;;
12631;SDS011;6381;45.748;12.106;2023-04-27T11:23:33;1.80;;;1.63;;
12631;SDS011;6381;45.748;12.106;2023-04-27T11:26:08;1.92;;;1.50;;
12631;SDS011;6381;45.748;12.106;2023-04-27T11:28:37;1.67;;;1.40;;
12631;SDS011;6381;45.748;12.106;2023-04-27T11:31:08;3.20;;;1.50;;
12631;SDS011;6381;45.748;12.106;2023-04-27T11:33:46;1.67;;;1.30;;
12631;SDS011;6381;45.748;12.106;2023-04-27T11:36:15;1.98;;;1.50;;
12631;SDS011;6381;45.748;12.106;2023-04-27T11:38:45;1.73;;;1.60;;
12631;SDS011;6381;45.748;12.106;2023-04-27T11:41:15;1.83;;;1.60;;
12631;SDS011;6381;45.748;12.106;2023-04-27T11:43:44;2.22;;;1.75;;
12631;SDS011;6381;45.748;12.106;2023-04-27T11:46:20;1.42;;;1.33;;
12631;SDS011;6381;45.748;12.106;2023-04-27T11:48:49;1.70;;;1.60;;
12631;SDS011;6381;45.748;12.106;2023-04-27T11:51:19;2.28;;;1.77;;
12631;SDS011;6381;45.748;12.106;2023-04-27T11:53:51;2.47;;;1.90;;
12631;SDS011;6381;45.748;12.106;2023-04-27T11:56:21;1.83;;;1.63;;
12631;SDS011;6381;45.748;12.106;2023-04-27T11:58:52;2.22;;;1.70;;
12631;SDS011;6381;45.748;12.106;2023-04-27T12:01:23;1.60;;;1.50;;
12631;SDS011;6381;45.748;12.106;2023-04-27T12:04:03;1.67;;;1.58;;
12631;SDS011;6381;45.748;12.106;2023-04-27T12:06:33;3.63;;;1.60;;
12631;SDS011;6381;45.748;12.106;2023-04-27T12:09:04;1.55;;;1.45;;
12631;SDS011;6381;45.748;12.106;2023-04-27T12:11:34;2.40;;;1.65;;
12631;SDS011;6381;45.748;12.106;2023-04-27T12:14:04;1.90;;;1.70;;
12631;SDS011;6381;45.748;12.106;2023-04-27T12:16:35;2.83;;;1.52;;
12631;SDS011;6381;45.748;12.106;2023-04-27T12:19:04;2.42;;;2.08;;
12631;SDS011;6381;45.748;12.106;2023-04-27T12:21:34;2.30;;;2.00;;
12631;SDS011;6381;45.748;12.106;2023-04-27T12:24:03;2.75;;;2.10;;
12631;SDS011;6381;45.748;12.106;2023-04-27T12:26:33;2.20;;;1.80;;
12631;SDS011;6381;45.748;12.106;2023-04-27T12:29:02;2.20;;;2.00;;
12631;SDS011;6381;45.748;12.106;2023-04-27T12:31:32;2.30;;;2.10;;
12631;SDS011;6381;45.748;12.106;2023-04-27T12:34:03;2.75;;;1.98;;
12631;SDS011;6381;45.748;12.106;2023-04-27T12:36:32;3.90;;;2.30;;
12631;SDS011;6381;45.748;12.106;2023-04-27T12:39:11;2.42;;;2.20;;
12631;SDS011;6381;45.748;12.106;2023-04-27T12:41:43;2.47;;;2.28;;
12631;SDS011;6381;45.748;12.106;2023-04-27T12:44:13;2.60;;;2.33;;
12631;SDS011;6381;45.748;12.106;2023-04-27T12:46:43;2.50;;;2.30;;
12631;SDS011;6381;45.748;12.106;2023-04-27T12:49:15;2.72;;;1.95;;
12631;SDS011;6381;45.748;12.106;2023-04-27T12:51:45;2.95;;;2.40;;
12631;SDS011;6381;45.748;12.106;2023-04-27T12:54:17;2.40;;;2.20;;
12631;SDS011;6381;45.748;12.106;2023-04-27T12:56:47;4.30;;;2.20;;
12631;SDS011;6381;45.748;12.106;2023-04-27T12:59:17;2.55;;;1.90;;
12631;SDS011;6381;45.748;12.106;2023-04-27T13:01:47;3.00;;;2.03;;
12631;SDS011;6381;45.748;12.106;2023-04-27T13:04:19;2.58;;;2.38;;
12631;SDS011;6381;45.748;12.106;2023-04-27T13:06:49;2.53;;;2.33;;
12631;SDS011;6381;45.748;12.106;2023-04-27T13:09:18;2.47;;;2.20;;
12631;SDS011;6381;45.748;12.106;2023-04-27T13:11:48;2.20;;;2.00;;
12631;SDS011;6381;45.748;12.106;2023-04-27T13:14:18;2.33;;;2.13;;
12631;SDS011;6381;45.748;12.106;2023-04-27T13:16:48;4.55;;;2.00;;
12631;SDS011;6381;45.748;12.106;2023-04-27T13:19:19;2.88;;;2.20;;
12631;SDS011;6381;45.748;12.106;2023-04-27T13:21:48;2.97;;;2.35;;
12631;SDS011;6381;45.748;12.106;2023-04-27T13:24:17;3.30;;;2.00;;
12631;SDS011;6381;45.748;12.106;2023-04-27T13:26:46;3.45;;;2.30;;
12631;SDS011;6381;45.748;12.106;2023-04-27T13:29:16;3.20;;;2.20;;
12631;SDS011;6381;45.748;12.106;2023-04-27T13:31:45;3.50;;;1.90;;
12631;SDS011;6381;45.748;12.106;2023-04-27T13:34:16;2.50;;;1.90;;
12631;SDS011;6381;45.748;12.106;2023-04-27T13:36:46;4.35;;;2.00;;
12631;SDS011;6381;45.748;12.106;2023-04-27T13:39:16;2.92;;;1.65;;
12631;SDS011;6381;45.748;12.106;2023-04-27T13:41:47;5.38;;;1.80;;
12631;SDS011;6381;45.748;12.106;2023-04-27T13:44:16;3.75;;;1.90;;
12631;SDS011;6381;45.748;12.106;2023-04-27T13:46:46;3.08;;;1.88;;
12631;SDS011;6381;45.748;12.106;2023-04-27T13:49:15;4.35;;;1.67;;
12631;SDS011;6381;45.748;12.106;2023-04-27T13:51:44;1.70;;;1.60;;
12631;SDS011;6381;45.748;12.106;2023-04-27T13:54:15;2.33;;;1.50;;
12631;SDS011;6381;45.748;12.106;2023-04-27T13:56:44;2.03;;;1.70;;
12631;SDS011;6381;45.748;12.106;2023-04-27T13:59:14;2.45;;;1.90;;
12631;SDS011;6381;45.748;12.106;2023-04-27T14:01:43;3.67;;;1.80;;
12631;SDS011;6381;45.748;12.106;2023-04-27T14:04:13;4.75;;;1.65;;
12631;SDS011;6381;45.748;12.106;2023-04-27T14:06:42;3.72;;;2.03;;
12631;SDS011;6381;45.748;12.106;2023-04-27T14:09:14;2.25;;;1.60;;
12631;SDS011;6381;45.748;12.106;2023-04-27T14:11:43;2.38;;;1.70;;
12631;SDS011;6381;45.748;12.106;2023-04-27T14:14:22;2.05;;;1.40;;
12631;SDS011;6381;45.748;12.106;2023-04-27T14:16:51;3.08;;;2.30;;
12631;SDS011;6381;45.748;12.106;2023-04-27T14:19:23;3.03;;;1.80;;
12631;SDS011;6381;45.748;12.106;2023-04-27T14:21:53;4.43;;;1.90;;
12631;SDS011;6381;45.748;12.106;2023-04-27T14:24:24;2.50;;;1.60;;
12631;SDS011;6381;45.748;12.106;2023-04-27T14:26:55;2.70;;;2.13;;
12631;SDS011;6381;45.748;12.106;2023-04-27T14:29:24;1.77;;;1.40;;
12631;SDS011;6381;45.748;12.106;2023-04-27T14:31:54;3.35;;;1.70;;
12631;SDS011;6381;45.748;12.106;2023-04-27T14:34:23;3.42;;;1.67;;
12631;SDS011;6381;45.748;12.106;2023-04-27T14:36:53;3.65;;;1.88;;
12631;SDS011;6381;45.748;12.106;2023-04-27T14:39:22;1.50;;;1.40;;
12631;SDS011;6381;45.748;12.106;2023-04-27T14:41:54;4.82;;;1.77;;
12631;SDS011;6381;45.748;12.106;2023-04-27T14:44:23;2.72;;;1.30;;
12631;SDS011;6381;45.748;12.106;2023-04-27T14:46:53;3.33;;;1.55;;
12631;SDS011;6381;45.748;12.106;2023-04-27T14:49:22;1.85;;;1.42;;
12631;SDS011;6381;45.748;12.106;2023-04-27T14:51:51;2.03;;;1.65;;
12631;SDS011;6381;45.748;12.106;2023-04-27T14:54:21;1.98;;;1.80;;
12631;SDS011;6381;45.748;12.106;2023-04-27T14:56:51;2.88;;;1.50;;
12631;SDS011;6381;45.748;12.106;2023-04-27T14:59:24;3.65;;;1.70;;
12631;SDS011;6381;45.748;12.106;2023-04-27T15:01:53;1.65;;;1.52;;
12631;SDS011;6381;45.748;12.106;2023-04-27T15:04:23;2.78;;;1.40;;
12631;SDS011;6381;45.748;12.106;2023-04-27T15:06:53;3.40;;;1.50;;